Time;durP1;ratioP1;P1;durP2;ratioP2;P2;SDS_P1;SDS_P2;PMS_P1;PMS_P2;Temp;Humidity;BMP_temperature;BMP_pressure;BME280_temperature;BME280_humidity;BME280_pressure;Samples;Min_cycle;Max_cycle;Signal;HPM_P1;HPM_P2
2022/10/19 00:00:23;;;;;;;7.45;3.33;;;;;;;-143.48;81.31;80456.03;5015338;28;20389;-72
2022/10/19 00:02:49;;;;;;;9.70;3.67;;;;;;;-143.48;81.66;80461.97;5015684;28;20026;-72
2022/10/19 00:05:14;;;;;;;8.30;3.33;;;;;;;-143.48;81.67;80471.88;5015762;28;20109;-72
2022/10/19 00:07:39;;;;;;;11.63;3.25;;;;;;;-143.48;81.12;80477.84;5015723;28;20028;-73
2022/10/19 00:10:05;;;;;;;7.00;3.05;;;;;;;-143.48;81.38;80487.75;5015773;28;20065;-72
2022/10/19 00:12:30;;;;;;;11.38;2.90;;;;;;;-143.48;81.46;80483.78;4998084;28;20017;-71
2022/10/19 00:14:56;;;;;;;5.03;2.70;;;;;;;-143.48;81.72;80483.78;5015530;28;20037;-72
2022/10/19 00:17:22;;;;;;;5.68;2.67;;;;;;;-143.48;81.21;80477.84;5015600;28;20033;-74
2022/10/19 00:19:47;;;;;;;6.97;2.80;;;;;;;-143.48;81.21;80489.75;5015588;28;20113;-72
2022/10/19 00:22:12;;;;;;;6.63;2.80;;;;;;;-143.48;81.32;80489.75;5015392;28;20026;-73
2022/10/19 00:24:38;;;;;;;8.63;2.80;;;;;;;-143.48;81.05;80487.75;5014008;28;20021;-72
2022/10/19 00:27:03;;;;;;;7.32;2.70;;;;;;;-143.48;81.10;80489.75;5015207;28;20030;-72
2022/10/19 00:29:28;;;;;;;4.88;2.65;;;;;;;-143.48;80.85;80487.75;5014066;28;20068;-72
2022/10/19 00:31:54;;;;;;;8.35;3.10;;;;;;;-143.48;80.84;80489.75;5013939;28;20496;-72
2022/10/19 00:34:19;;;;;;;11.52;2.60;;;;;;;-143.48;80.84;80489.75;5015269;28;20505;-72
2022/10/19 00:36:45;;;;;;;9.63;2.47;;;;;;;-143.48;80.36;80495.69;5015275;28;20108;-71
2022/10/19 00:39:13;;;;;;;6.13;3.10;;;;;;;-143.48;81.24;80497.69;4997587;28;20464;-72
2022/10/19 00:41:39;;;;;;;9.88;3.75;;;;;;;-143.48;80.86;80501.66;4997435;28;20033;-71
2022/10/19 00:44:11;;;;;;;7.18;3.58;;;;;;;-143.48;81.15;80495.69;5014874;28;20034;-72
2022/10/19 00:46:39;;;;;;;7.32;3.72;;;;;;;-143.48;81.27;80499.66;5015073;28;20084;-71
2022/10/19 00:49:20;;;;;;;9.60;3.85;;;;;;;-143.48;81.18;80507.59;5014746;28;20103;-72
2022/10/19 00:51:50;;;;;;;8.85;4.13;;;;;;;-143.48;81.71;80515.53;4997232;28;20568;-72
2022/10/19 00:54:16;;;;;;;6.93;4.03;;;;;;;-143.48;81.81;80515.53;5014838;28;20064;-72
2022/10/19 00:56:44;;;;;;;7.15;3.72;;;;;;;-143.48;81.47;80515.53;5014827;28;20026;-71
2022/10/19 00:59:14;;;;;;;12.63;4.50;;;;;;;-143.48;81.80;80501.66;5013582;28;20485;-71
2022/10/19 01:01:42;;;;;;;7.80;4.40;;;;;;;-143.48;82.25;80519.50;5014973;28;20076;-71
2022/10/19 01:04:09;;;;;;;9.02;4.75;;;;;;;-143.48;82.71;80539.34;5014962;28;20036;-71
2022/10/19 01:06:34;;;;;;;10.77;5.20;;;;;;;-143.48;83.90;80539.34;5014586;28;20021;-71
2022/10/19 01:09:00;;;;;;;10.13;5.10;;;;;;;-143.48;83.35;80527.44;5014667;28;20473;-72
2022/10/19 01:11:49;;;;;;;9.60;5.25;;;;;;;-143.48;83.22;80525.47;5014655;28;20037;-72
2022/10/19 01:14:27;;;;;;;11.50;5.10;;;;;;;-143.48;83.38;80515.53;5014567;28;20101;-72
2022/10/19 01:17:10;;;;;;;8.73;5.00;;;;;;;-143.48;82.86;80519.50;5014490;28;20052;-72
2022/10/19 01:19:53;;;;;;;30.30;6.18;;;;;;;-143.48;83.15;80527.44;4996878;28;20056;-72
2022/10/19 01:22:35;;;;;;;;;;;;;;;-143.48;83.99;80539.34;4997149;28;20037;-72
2022/10/19 01:25:32;;;;;;;8.23;5.32;;;;;;;-143.48;84.11;80551.25;5013058;28;19913;-72
2022/10/19 01:28:16;;;;;;;14.02;5.57;;;;;;;-143.48;83.52;80561.19;5014334;28;20028;-72
2022/10/19 01:31:03;;;;;;;10.90;5.18;;;;;;;-143.48;83.84;80547.28;5014314;28;20022;-72
2022/10/19 01:33:40;;;;;;;10.10;5.53;;;;;;;-143.48;83.44;80549.28;5014233;28;20022;-72
2022/10/19 01:36:17;;;;;;;10.80;5.53;;;;;;;-143.48;83.17;80559.19;5014197;28;20044;-73
2022/10/19 01:39:09;;;;;;;10.10;5.68;;;;;;;-143.48;83.12;80561.19;5012946;28;20382;-72
2022/10/19 01:41:50;;;;;;;9.68;5.10;;;;;;;-143.48;82.62;80567.13;5011013;28;20045;-72
2022/10/19 01:44:20;;;;;;;9.77;4.78;;;;;;;-143.48;82.80;80567.13;5013826;28;20025;-72
2022/10/19 01:46:56;;;;;;;9.55;4.78;;;;;;;-143.48;82.70;80567.13;5013982;28;20072;-72
2022/10/19 01:49:31;;;;;;;9.10;5.05;;;;;;;-143.48;82.93;80555.22;5013883;28;20045;-72
2022/10/19 01:52:00;;;;;;;8.20;4.70;;;;;;;-143.48;82.25;80557.22;5013858;28;20473;-73
2022/10/19 01:54:31;;;;;;;8.85;4.72;;;;;;;-143.48;81.87;80567.13;5013928;28;20047;-72
2022/10/19 01:56:59;;;;;;;8.30;4.60;;;;;;;-143.48;81.97;80571.09;5018221;28;20026;-72
2022/10/19 01:59:25;;;;;;;7.28;4.82;;;;;;;-143.48;82.35;80571.09;5014010;28;20029;-72
2022/10/19 02:01:52;;;;;;;10.43;4.50;;;;;;;-143.48;82.09;80559.19;5013940;28;20096;-72
2022/10/19 02:04:20;;;;;;;6.45;4.30;;;;;;;-143.48;81.82;80565.16;5013595;28;20030;-72
2022/10/19 02:06:45;;;;;;;9.45;4.80;;;;;;;-143.48;81.55;80563.16;5013661;28;20026;-71
2022/10/19 02:09:16;;;;;;;6.22;4.25;;;;;;;-143.48;81.43;80571.09;5013980;28;20121;-72
2022/10/19 02:11:44;;;;;;;9.32;4.55;;;;;;;-143.48;82.15;80567.13;5013706;28;20109;-72
2022/10/19 02:14:14;;;;;;;9.82;4.85;;;;;;;-143.48;81.82;80575.06;5013676;28;20022;-72
2022/10/19 02:16:50;;;;;;;7.90;4.50;;;;;;;-143.48;81.48;80573.09;5013453;28;20040;-72
2022/10/19 02:19:19;;;;;;;7.45;4.80;;;;;;;-143.48;81.20;80575.06;5013513;28;20041;-72
2022/10/19 02:21:44;;;;;;;8.02;4.32;;;;;;;-143.48;81.63;80569.13;5013543;28;20029;-72
2022/10/19 02:24:10;;;;;;;7.28;4.60;;;;;;;-143.48;81.39;80579.03;5013243;28;20026;-72
2022/10/19 02:26:36;;;;;;;7.93;4.22;;;;;;;-143.48;81.63;80577.06;5013455;28;20026;-72
2022/10/19 02:29:02;;;;;;;6.57;4.35;;;;;;;-143.48;81.84;80581.03;5013382;28;20386;-72
2022/10/19 02:31:27;;;;;;;6.18;4.45;;;;;;;-143.48;81.65;80583.00;4996204;28;20060;-72
2022/10/19 02:33:53;;;;;;;7.30;4.78;;;;;;;-143.48;81.68;80588.97;5013590;28;20042;-72
2022/10/19 02:36:18;;;;;;;13.25;4.38;;;;;;;-143.48;81.40;80588.97;4995845;28;20063;-72
2022/10/19 02:38:44;;;;;;;7.80;4.38;;;;;;;-143.48;81.64;80594.91;5013549;28;20030;-72
2022/10/19 02:41:15;;;;;;;8.77;4.72;;;;;;;-143.48;81.59;80577.06;5013324;28;20029;-72
2022/10/19 02:43:46;;;;;;;7.53;4.05;;;;;;;-143.48;81.29;80592.94;5013159;28;20080;-71
2022/10/19 02:46:22;;;;;;;6.55;3.80;;;;;;;-143.48;81.54;80586.97;5013517;28;20030;-71
2022/10/19 02:48:50;;;;;;;8.43;3.55;;;;;;;-143.48;81.79;80585.00;5013121;28;20052;-71
2022/10/19 02:51:53;;;;;;;8.13;3.65;;;;;;;-143.48;82.31;80585.00;5013157;28;20030;-71
2022/10/19 02:54:18;;;;;;;9.57;3.47;;;;;;;-143.48;81.46;80585.00;5011882;28;20026;-72
2022/10/19 02:56:44;;;;;;;5.45;3.60;;;;;;;-143.48;81.34;80590.94;5011953;28;20022;-72
2022/10/19 02:59:09;;;;;;;5.72;3.42;;;;;;;-143.48;81.50;80594.91;5011843;28;20418;-71
2022/10/19 03:01:34;;;;;;;7.05;3.70;;;;;;;-143.48;81.78;80602.84;5013293;28;20111;-72
2022/10/19 03:03:59;;;;;;;10.77;4.18;;;;;;;-143.48;82.25;80588.97;4995416;28;20032;-72
2022/10/19 03:06:25;;;;;;;6.50;3.83;;;;;;;-143.48;82.17;80592.94;4995487;28;20096;-72
2022/10/19 03:08:50;;;;;;;6.82;4.15;;;;;;;-143.48;82.46;80581.03;5011838;28;20033;-72
2022/10/19 03:11:15;;;;;;;6.25;3.60;;;;;;;-143.48;82.07;80604.84;5013130;28;20032;-72
2022/10/19 03:13:42;;;;;;;13.43;4.50;;;;;;;-143.48;82.65;80602.84;4995382;28;20469;-72
2022/10/19 03:16:09;;;;;;;9.68;3.80;;;;;;;-143.48;83.53;80624.69;5016332;28;20446;-71
2022/10/19 03:18:35;;;;;;;9.32;4.45;;;;;;;-143.48;83.53;80618.72;5016620;28;20026;-72
2022/10/19 03:21:11;;;;;;;6.43;4.13;;;;;;;-143.48;83.59;80616.75;5016752;28;20028;-72
2022/10/19 03:23:38;;;;;;;7.47;3.60;;;;;;;-143.48;83.34;80616.75;5016586;28;20026;-72
2022/10/19 03:26:04;;;;;;;6.97;3.70;;;;;;;-143.48;83.23;80608.81;5016574;28;20033;-72
2022/10/19 03:28:29;;;;;;;6.30;3.80;;;;;;;-143.48;82.87;80610.78;4998836;28;20385;-72
2022/10/19 03:30:55;;;;;;;10.43;4.05;;;;;;;-143.48;82.59;80602.84;5016361;28;20037;-72
2022/10/19 03:33:21;;;;;;;5.38;3.47;;;;;;;-143.48;82.58;80604.84;5016456;28;20022;-71
2022/10/19 03:35:46;;;;;;;4.82;3.47;;;;;;;-143.48;82.18;80616.75;5015137;28;20022;-71
2022/10/19 03:38:11;;;;;;;4.65;3.30;;;;;;;-143.48;82.07;80608.81;4998809;28;20025;-72
2022/10/19 03:40:37;;;;;;;6.05;3.50;;;;;;;-143.48;81.81;80610.78;5016214;28;20030;-72
2022/10/19 03:43:02;;;;;;;6.32;3.88;;;;;;;-143.48;82.75;80614.75;5014975;28;20030;-72
2022/10/19 03:45:27;;;;;;;4.65;3.35;;;;;;;-143.48;82.59;80606.81;5016098;28;20029;-72
2022/10/19 03:47:53;;;;;;;6.40;3.75;;;;;;;-143.48;82.17;80602.84;5016030;28;20034;-72
2022/10/19 03:50:20;;;;;;;5.88;3.72;;;;;;;-143.48;82.77;80612.78;5015153;28;20061;-71
2022/10/19 03:52:45;;;;;;;4.68;3.20;;;;;;;-143.48;83.14;80614.75;5016119;28;20034;-71
2022/10/19 03:55:11;;;;;;;10.30;3.95;;;;;;;-143.48;82.70;80620.72;5016056;28;20041;-71
2022/10/19 03:57:36;;;;;;;4.35;3.25;;;;;;;-143.48;82.83;80622.69;5016113;28;20032;-72
2022/10/19 04:00:05;;;;;;;3.90;3.13;;;;;;;-143.48;82.51;80632.63;5015866;28;20064;-71
2022/10/19 04:02:31;;;;;;;5.13;3.20;;;;;;;-143.48;82.44;80628.66;5015668;28;20112;-71
2022/10/19 04:04:56;;;;;;;7.28;3.38;;;;;;;-143.48;82.23;80626.66;5015722;28;20105;-71
2022/10/19 04:07:21;;;;;;;4.43;3.03;;;;;;;-143.48;82.13;80628.66;4997978;28;20030;-72
2022/10/19 04:09:47;;;;;;;5.10;3.28;;;;;;;-143.48;81.86;80630.63;5015980;28;20045;-70
2022/10/19 04:12:12;;;;;;;5.82;3.10;;;;;;;-143.48;81.68;80630.63;5015614;28;20025;-72
2022/10/19 04:14:37;;;;;;;4.18;3.00;;;;;;;-143.48;81.37;80638.56;4997976;28;20021;-70
2022/10/19 04:17:03;;;;;;;4.20;3.10;;;;;;;-143.48;81.26;80638.56;5014328;28;20026;-71
2022/10/19 04:19:29;;;;;;;7.47;2.95;;;;;;;-143.48;81.39;80638.56;5015550;28;20109;-71
2022/10/19 04:21:54;;;;;;;5.07;3.30;;;;;;;-143.48;81.72;80634.59;5015543;28;20018;-72
2022/10/19 04:24:20;;;;;;;4.60;3.33;;;;;;;-143.48;81.83;80638.56;5015804;28;20367;-71
2022/10/19 04:26:50;;;;;;;5.78;3.80;;;;;;;-143.48;81.88;80622.69;5013603;28;20025;-71
2022/10/19 04:29:18;;;;;;;5.65;3.83;;;;;;;-143.48;81.96;80644.53;4997864;28;20037;-71
2022/10/19 04:31:44;;;;;;;6.15;3.80;;;;;;;-143.48;81.75;80644.53;5015433;28;20069;-71
2022/10/19 04:34:10;;;;;;;8.80;3.80;;;;;;;-143.48;81.68;80636.59;5015353;28;20033;-71
2022/10/19 04:36:36;;;;;;;9.55;4.10;;;;;;;-143.48;81.65;80644.53;5015252;28;20032;-71
2022/10/19 04:39:02;;;;;;;5.47;4.05;;;;;;;-143.48;81.44;80644.53;5015149;28;20025;-70
2022/10/19 04:41:27;;;;;;;7.95;3.78;;;;;;;-143.48;81.95;80642.53;5015141;28;20050;-71
2022/10/19 04:43:58;;;;;;;6.13;3.72;;;;;;;-143.48;81.47;80650.47;5014919;28;20026;-71
2022/10/19 04:46:24;;;;;;;6.60;3.80;;;;;;;-143.48;81.65;80654.44;5015031;28;20532;-71
2022/10/19 04:48:51;;;;;;;8.15;4.15;;;;;;;-143.48;81.26;80648.50;5014958;28;20452;-71
2022/10/19 04:51:18;;;;;;;5.65;3.78;;;;;;;-143.48;81.92;80662.38;4997290;28;20061;-71
2022/10/19 04:53:44;;;;;;;9.65;3.85;;;;;;;-143.48;81.97;80656.44;4997281;28;20021;-71
2022/10/19 04:56:15;;;;;;;5.03;3.60;;;;;;;-143.48;81.39;80662.38;5013588;28;20057;-71
2022/10/19 04:58:41;;;;;;;6.03;3.83;;;;;;;-143.48;81.41;80662.38;5014842;28;20022;-71
2022/10/19 05:01:16;;;;;;;6.72;4.30;;;;;;;-143.48;81.23;80670.31;5014791;28;20032;-71
2022/10/19 05:03:41;;;;;;;5.80;3.80;;;;;;;-143.48;81.50;80652.47;5013420;28;20120;-71
2022/10/19 05:06:08;;;;;;;7.18;3.80;;;;;;;-143.48;81.33;80650.47;5014708;28;20452;-71
2022/10/19 05:08:34;;;;;;;5.55;3.53;;;;;;;-143.48;81.97;80658.41;5014654;28;20030;-72
2022/10/19 05:11:09;;;;;;;5.95;3.67;;;;;;;-143.48;82.44;80670.31;5014652;28;20104;-71
2022/10/19 05:13:35;;;;;;;6.07;3.80;;;;;;;-143.48;82.31;80658.41;5014500;28;20025;-71
2022/10/19 05:16:03;;;;;;;7.57;3.80;;;;;;;-143.48;81.88;80650.47;5013345;28;20036;-71
2022/10/19 05:18:28;;;;;;;5.85;3.78;;;;;;;-143.48;81.99;80648.50;5014562;28;20496;-71
2022/10/19 05:21:06;;;;;;;4.82;3.72;;;;;;;-143.48;82.06;80648.50;4996778;28;20033;-72
2022/10/19 05:23:32;;;;;;;6.90;4.22;;;;;;;-143.48;81.78;80656.44;5014125;28;20478;-71
2022/10/19 05:26:10;;;;;;;5.60;4.15;;;;;;;-143.48;81.79;80646.50;4996773;28;20481;-70
2022/10/19 05:28:36;;;;;;;7.35;4.30;;;;;;;-143.48;82.10;80662.38;5014274;28;20026;-71
2022/10/19 05:31:14;;;;;;;8.60;4.60;;;;;;;-143.48;82.47;80678.25;5013305;28;20164;-72
2022/10/19 05:33:41;;;;;;;8.65;4.63;;;;;;;-143.48;82.54;80670.31;5014192;28;20022;-72
2022/10/19 05:36:12;;;;;;;9.43;5.15;;;;;;;-143.48;82.72;80658.41;5014324;28;20033;-71
2022/10/19 05:38:37;;;;;;;6.93;4.47;;;;;;;-143.48;82.06;80654.44;5013409;28;20055;-71
2022/10/19 05:41:03;;;;;;;7.63;4.22;;;;;;;-143.48;81.55;80650.47;5014227;28;20032;-72
2022/10/19 05:43:28;;;;;;;8.15;4.38;;;;;;;-143.48;81.76;80652.47;4996397;28;20100;-72
2022/10/19 05:45:53;;;;;;;6.72;4.40;;;;;;;-143.48;82.29;80644.53;5013971;28;20029;-72
2022/10/19 05:48:19;;;;;;;6.72;4.30;;;;;;;-143.48;81.92;80634.59;4996156;28;20046;-71
2022/10/19 05:50:53;;;;;;;8.68;4.50;;;;;;;-143.48;81.62;80658.41;5013946;28;20120;-71
2022/10/19 05:53:19;;;;;;;8.18;4.25;;;;;;;-143.48;82.39;80648.50;4996286;28;20124;-72
2022/10/19 05:55:44;;;;;;;7.03;4.10;;;;;;;-143.48;82.56;80664.38;5013840;28;20117;-73
2022/10/19 05:58:10;;;;;;;9.55;4.70;;;;;;;-143.48;83.11;80644.53;5013815;28;20030;-72
2022/10/19 06:00:35;;;;;;;6.53;4.03;;;;;;;-143.48;82.57;80638.56;5013849;28;20021;-73
2022/10/19 06:03:00;;;;;;;6.97;3.97;;;;;;;-143.48;82.26;80654.44;5013572;28;20022;-71
2022/10/19 06:05:25;;;;;;;9.00;4.25;;;;;;;-143.48;82.80;80656.44;4996834;28;20386;-72
2022/10/19 06:07:51;;;;;;;7.78;3.85;;;;;;;-143.48;82.22;80662.38;5021796;28;20032;-75
2022/10/19 06:10:16;;;;;;;8.50;4.18;;;;;;;-143.48;81.88;80654.44;5023375;28;20025;-73
2022/10/19 06:12:45;;;;;;;6.57;4.18;;;;;;;-143.48;81.85;80662.38;5005500;28;20032;-74
2022/10/19 06:15:10;;;;;;;6.93;4.05;;;;;;;-143.48;81.48;80652.47;5005549;28;20018;-74
2022/10/19 06:17:36;;;;;;;5.63;4.05;;;;;;;-143.48;81.79;80656.44;5021027;28;20036;-72
2022/10/19 06:20:01;;;;;;;7.35;4.10;;;;;;;-143.48;81.43;80656.44;5000168;28;20034;-73
2022/10/19 06:22:26;;;;;;;6.03;4.00;;;;;;;-143.48;80.89;80662.38;5014863;28;20026;-72
2022/10/19 06:24:52;;;;;;;6.05;3.38;;;;;;;-143.48;81.35;80650.47;5013830;28;20034;-72
2022/10/19 06:27:17;;;;;;;7.80;4.07;;;;;;;-143.48;81.00;80650.47;5013795;28;20157;-73
2022/10/19 06:29:42;;;;;;;7.32;4.10;;;;;;;-143.48;80.87;80656.44;5013396;28;20108;-72
2022/10/19 06:32:09;;;;;;;7.88;4.38;;;;;;;-143.48;81.13;80642.53;5013509;28;20107;-73
2022/10/19 06:34:34;;;;;;;8.52;4.20;;;;;;;-143.48;80.76;80634.59;4995728;28;20018;-72
2022/10/19 06:37:00;;;;;;;8.73;4.03;;;;;;;-143.48;80.27;80634.59;5013408;28;20481;-72
2022/10/19 06:39:27;;;;;;;7.38;4.20;;;;;;;-143.48;80.41;80632.63;5012061;28;20073;-72
2022/10/19 06:41:53;;;;;;;8.52;4.57;;;;;;;-143.48;80.46;80612.78;5014372;28;20141;-73
2022/10/19 06:44:18;;;;;;;14.77;4.28;;;;;;;-143.48;79.81;80598.88;5013257;28;20487;-71
2022/10/19 06:46:43;;;;;;;6.13;4.13;;;;;;;-143.48;79.90;80592.94;5013275;28;20080;-72
2022/10/19 06:49:13;;;;;;;9.55;4.35;;;;;;;-143.48;79.90;80590.94;5015163;28;20378;-71
2022/10/19 06:51:39;;;;;;;8.70;4.25;;;;;;;-143.48;79.58;80585.00;5017401;28;20477;-71
2022/10/19 06:54:05;;;;;;;7.95;4.63;;;;;;;-143.48;79.79;80555.22;5017186;28;20100;-70
2022/10/19 06:56:30;;;;;;;11.20;5.38;;;;;;;-143.48;79.52;80545.31;5015953;28;20112;-71
2022/10/19 06:58:56;;;;;;;8.82;4.78;;;;;;;-143.48;79.77;80519.50;5016955;28;20029;-72
2022/10/19 07:01:23;;;;;;;12.10;4.85;;;;;;;-143.48;79.56;80503.63;5017662;28;20029;-71
2022/10/19 07:03:51;;;;;;;10.27;4.68;;;;;;;-143.48;78.88;80495.69;5016941;28;20053;-71
2022/10/19 07:06:17;;;;;;;8.05;4.80;;;;;;;-143.48;78.88;80475.84;4999424;28;20036;-70
2022/10/19 07:08:43;;;;;;;10.50;4.22;;;;;;;-143.48;79.36;80424.28;5017080;28;20026;-72
2022/10/19 07:11:14;;;;;;;15.13;5.95;;;;;;;-143.48;78.77;80416.34;5001295;28;20030;-72
2022/10/19 07:13:40;;;;;;;8.55;4.15;;;;;;;-143.48;77.43;80350.84;5000610;28;20116;-72
2022/10/19 07:16:10;;;;;;;6.72;4.13;;;;;;;-143.48;77.51;80358.78;5016964;28;20556;-72
2022/10/19 07:18:36;;;;;;;9.38;4.22;;;;;;;-143.48;78.30;80354.81;5016800;28;20032;-72
2022/10/19 07:21:05;;;;;;;7.30;3.88;;;;;;;-143.48;77.88;80348.88;5017574;28;20029;-72
2022/10/19 07:23:32;;;;;;;7.75;3.60;;;;;;;-143.48;77.47;80283.41;5016894;28;20029;-72
2022/10/19 07:26:02;;;;;;;12.02;4.57;;;;;;;-143.48;75.88;80249.66;5016577;28;20543;-72
2022/10/19 07:28:29;;;;;;;12.13;4.30;;;;;;;-143.48;75.06;80208.00;5016858;28;20477;-72
2022/10/19 07:30:54;;;;;;;7.00;3.60;;;;;;;-143.48;75.36;80204.03;5016556;28;20025;-70
2022/10/19 07:33:20;;;;;;;8.57;3.63;;;;;;;-143.48;74.92;80176.25;5016473;28;20101;-71
2022/10/19 07:35:48;;;;;;;9.50;3.53;;;;;;;-143.48;72.67;80059.19;5016355;28;20282;-74
2022/10/19 07:38:14;;;;;;;5.72;3.42;;;;;;;-143.48;72.14;80023.47;5002778;28;20026;-72
2022/10/19 07:40:39;;;;;;;10.70;4.00;;;;;;;-143.48;66.80;79896.50;5016627;28;20029;-71
2022/10/19 07:43:04;;;;;;;6.75;3.70;;;;;;;-143.48;60.51;79696.13;5015008;28;20067;-72
2022/10/19 07:45:34;;;;;;;10.30;3.60;;;;;;;-143.48;60.05;79698.09;5017452;28;20021;-72
2022/10/19 07:47:59;;;;;;;9.00;3.42;;;;;;;-143.48;57.44;79658.44;5021494;28;20026;-75
2022/10/19 07:50:26;;;;;;;8.85;3.15;;;;;;;-143.48;57.66;79680.25;5024962;28;20042;-75
2022/10/19 07:52:52;;;;;;;7.40;3.28;;;;;;;-143.48;58.08;79666.38;5024213;28;20053;-73
2022/10/19 07:55:18;;;;;;;8.07;3.17;;;;;;;-143.48;57.24;79690.16;5023153;28;20025;-76
2022/10/19 07:57:48;;;;;;;8.57;3.00;;;;;;;-143.48;57.57;79656.44;5022066;28;20359;-72
2022/10/19 08:00:15;;;;;;;6.25;2.78;;;;;;;-143.48;54.29;79487.81;5015091;28;20105;-72
2022/10/19 08:02:41;;;;;;;5.95;2.65;;;;;;;-143.48;54.44;79539.41;5015888;28;20025;-72
2022/10/19 08:05:07;;;;;;;7.65;2.50;;;;;;;-143.48;54.39;79575.09;5015643;28;20034;-73
2022/10/19 08:07:33;;;;;;;6.10;2.70;;;;;;;-143.48;54.31;79575.09;4997994;28;20491;-72
2022/10/19 08:09:58;;;;;;;4.00;2.50;;;;;;;-143.48;55.12;79565.19;5015592;28;20030;-73
2022/10/19 08:12:23;;;;;;;9.45;2.47;;;;;;;-143.48;53.00;79483.84;5015603;28;20029;-73
2022/10/19 08:14:48;;;;;;;7.93;2.42;;;;;;;-143.48;53.58;79541.38;5015998;28;20022;-72
2022/10/19 08:17:16;;;;;;;6.25;2.10;;;;;;;-143.48;54.76;79551.31;5015516;28;20038;-72
2022/10/19 08:19:43;;;;;;;7.28;2.15;;;;;;;-143.48;53.09;79432.28;4997898;28;20025;-73
2022/10/19 08:22:08;;;;;;;8.43;2.42;;;;;;;-143.48;49.81;79275.56;5014053;28;20025;-72
2022/10/19 08:24:34;;;;;;;6.78;2.40;;;;;;;-143.48;48.52;79229.94;4997743;28;20436;-73
2022/10/19 08:27:01;;;;;;;6.15;2.20;;;;;;;-143.48;47.03;79128.78;5015540;28;20028;-73
2022/10/19 08:29:27;;;;;;;8.00;2.28;;;;;;;-143.48;46.50;79148.63;4998042;28;20046;-73
2022/10/19 08:31:52;;;;;;;7.53;2.20;;;;;;;-143.48;45.81;79087.13;5016188;28;20033;-72
2022/10/19 08:34:17;;;;;;;7.10;2.60;;;;;;;-143.48;44.20;79019.69;5015774;28;20469;-72
2022/10/19 08:36:43;;;;;;;8.23;2.55;;;;;;;-143.48;44.93;79051.41;5015846;28;20084;-72
2022/10/19 08:39:11;;;;;;;8.02;2.80;;;;;;;-143.48;44.40;79039.53;5015773;28;20025;-72
2022/10/19 08:41:56;;;;;;;9.38;2.90;;;;;;;-143.48;45.42;79065.31;5014247;28;20025;-72
2022/10/19 08:44:42;;;;;;;12.02;3.20;;;;;;;-143.48;42.88;78924.47;5015360;28;20045;-73
2022/10/19 08:47:17;;;;;;;9.85;2.58;;;;;;;-143.48;42.62;78876.88;5015371;28;20025;-73
2022/10/19 08:49:44;;;;;;;10.88;3.00;;;;;;;-143.48;41.47;78779.69;5015342;28;20081;-73
2022/10/19 08:52:15;;;;;;;8.18;2.92;;;;;;;-143.48;40.65;78730.09;5016250;28;20366;-74
2022/10/19 08:55:20;;;;;;;10.25;2.80;;;;;;;-143.48;41.12;78753.91;5015993;28;20477;-73
2022/10/19 08:57:59;;;;;;;7.55;2.28;;;;;;;-143.48;40.73;78720.19;4993455;28;20022;-72
2022/10/19 09:00:27;;;;;;;8.05;2.38;;;;;;;-143.48;40.24;78688.44;5012258;28;20129;-72
2022/10/19 09:03:19;;;;;;;9.10;2.13;;;;;;;-143.48;41.33;78700.34;5015814;28;20041;-72
2022/10/19 09:05:56;;;;;;;7.70;2.20;;;;;;;-143.48;41.40;78718.19;5016454;28;20140;-73
2022/10/19 09:08:21;;;;;;;7.50;1.88;;;;;;;-143.48;39.88;78634.91;5014639;28;20108;-73
2022/10/19 09:10:51;;;;;;;5.60;1.77;;;;;;;-143.48;38.15;78515.91;5012429;28;20112;-72
2022/10/19 09:13:38;;;;;;;9.77;1.73;;;;;;;-143.48;37.32;78492.09;5013449;28;20022;-73
2022/10/19 09:16:04;;;;;;;8.77;1.83;;;;;;;-143.48;37.22;78480.19;4996436;28;20129;-73
2022/10/19 09:18:32;;;;;;;10.30;2.00;;;;;;;-143.48;38.11;78559.53;5014155;28;20442;-71
2022/10/19 09:21:39;;;;;;;13.27;2.10;;;;;;;-143.48;40.54;78724.16;5014121;28;20080;-72
2022/10/19 09:24:25;;;;;;;6.43;1.60;;;;;;;-143.48;40.38;78773.72;5013861;28;20563;-73
2022/10/19 09:26:53;;;;;;;7.35;2.00;;;;;;;-143.48;38.82;78658.69;4996461;28;20029;-73
2022/10/19 09:29:43;;;;;;;7.13;1.95;;;;;;;-143.48;38.16;78650.75;5017133;28;20037;-73
2022/10/19 09:32:17;;;;;;;8.38;2.00;;;;;;;-143.48;35.74;78402.84;5013830;28;20109;-70
2022/10/19 09:34:48;;;;;;;5.75;2.00;;;;;;;-143.48;34.56;78273.94;5014854;28;20361;-71
2022/10/19 09:37:14;;;;;;;9.90;2.17;;;;;;;-143.48;34.57;78285.84;5014566;28;20495;-72
2022/10/19 09:39:39;;;;;;;8.07;2.05;;;;;;;-143.48;35.41;78289.81;5014731;28;20097;-72
2022/10/19 09:42:24;;;;;;;7.72;1.92;;;;;;;-143.48;34.68;78345.34;5014709;28;20033;-72
2022/10/19 09:44:51;;;;;;;9.05;1.98;;;;;;;-143.48;35.37;78329.47;5015764;28;20558;-74
2022/10/19 09:47:37;;;;;;;8.52;1.67;;;;;;;-143.48;36.78;78547.63;4996958;28;20492;-72
2022/10/19 09:50:19;;;;;;;10.73;1.88;;;;;;;-143.48;37.05;78559.53;5013219;28;20050;-72
2022/10/19 09:52:51;;;;;;;7.57;1.90;;;;;;;-143.48;35.75;78452.44;5014369;28;20025;-72
2022/10/19 09:55:26;;;;;;;7.75;2.00;;;;;;;-143.48;35.66;78440.53;5015872;28;20021;-71
2022/10/19 09:58:17;;;;;;;6.32;2.15;;;;;;;-143.48;33.80;78273.94;5014006;28;20022;-72
2022/10/19 10:00:55;;;;;;;5.87;1.83;;;;;;;-143.48;37.51;78539.69;5012976;28;20034;-72
2022/10/19 10:03:23;;;;;;;5.00;1.70;;;;;;;-143.48;35.30;78379.06;5013793;28;20283;-71
2022/10/19 10:05:49;;;;;;;6.10;1.63;;;;;;;-143.48;35.03;78410.78;5013357;28;20104;-71
2022/10/19 10:08:21;;;;;;;4.63;1.50;;;;;;;-143.48;35.42;78460.38;5013889;28;20030;-71
2022/10/19 10:11:23;;;;;;;5.63;1.58;;;;;;;-143.48;37.50;78686.47;5013618;28;20393;-71
2022/10/19 10:13:52;;;;;;;6.22;1.73;;;;;;;-143.48;36.81;78595.22;5002756;28;20088;-71
2022/10/19 10:16:20;;;;;;;10.30;1.77;;;;;;;-143.48;36.59;78654.72;5014688;28;20476;-71
2022/10/19 10:19:01;;;;;;;10.27;1.65;;;;;;;-143.48;36.12;78595.22;5013489;28;20026;-71
2022/10/19 10:21:34;;;;;;;5.47;1.58;;;;;;;-143.48;38.02;78740.00;4996327;28;20120;-71
2022/10/19 10:24:15;;;;;;;4.20;1.50;;;;;;;-143.48;39.91;78900.66;5016116;28;20087;-72
2022/10/19 10:26:46;;;;;;;6.05;1.60;;;;;;;-143.48;38.77;78789.59;5013403;28;20392;-72
2022/10/19 10:29:23;;;;;;;7.55;1.88;;;;;;;-143.48;42.10;79055.38;5013600;28;20136;-72
2022/10/19 10:31:53;;;;;;;6.75;1.45;;;;;;;-143.48;43.51;79174.41;5005194;28;20037;-74
2022/10/19 10:34:37;;;;;;;6.10;1.25;;;;;;;-143.48;44.66;79269.63;5016902;28;20045;-72
2022/10/19 10:37:06;;;;;;;5.72;1.65;;;;;;;-143.48;45.32;79224.00;4997068;28;20030;-70
2022/10/19 10:39:32;;;;;;;4.90;1.55;;;;;;;-143.48;44.32;79164.47;5014381;28;20029;-71
2022/10/19 10:42:07;;;;;;;8.75;1.42;;;;;;;-143.48;45.50;79279.53;4995859;28;20397;-72
2022/10/19 10:44:35;;;;;;;8.05;1.50;;;;;;;-143.48;46.35;79281.50;5013644;28;20101;-71
2022/10/19 10:47:04;;;;;;;9.43;1.38;;;;;;;-143.48;45.54;79245.81;5012168;28;20053;-70
2022/10/19 10:49:36;;;;;;;8.25;1.60;;;;;;;-143.48;46.03;79208.13;5011930;28;20498;-70
2022/10/19 10:52:08;;;;;;;4.95;1.42;;;;;;;-143.48;46.31;79212.09;5013068;28;20022;-72
2022/10/19 10:54:34;;;;;;;10.63;1.58;;;;;;;-143.48;44.46;79099.03;5012961;28;20101;-71
2022/10/19 10:57:12;;;;;;;5.22;1.13;;;;;;;-143.48;45.44;79110.94;5013027;28;20115;-71
2022/10/19 11:00:04;;;;;;;5.70;1.17;;;;;;;-143.48;44.11;79081.16;5013177;28;20036;-71
2022/10/19 11:02:52;;;;;;;6.38;1.45;;;;;;;-143.48;42.35;78914.56;5013042;28;20071;-72
2022/10/19 11:05:24;;;;;;;4.68;1.50;;;;;;;-143.48;40.19;78857.03;5011603;28;20524;-71
2022/10/19 11:08:17;;;;;;;6.30;1.30;;;;;;;-143.48;36.35;78480.19;5011670;28;20018;-71
2022/10/19 11:11:08;;;;;;;8.60;1.40;;;;;;;-143.48;36.96;78603.16;5012374;28;20053;-72
2022/10/19 11:13:52;;;;;;;7.88;1.63;;;;;;;-143.48;39.00;78797.53;4995251;28;20030;-71
2022/10/19 11:16:38;;;;;;;6.00;1.27;;;;;;;-143.48;37.03;78668.59;4995117;28;20113;-71
2022/10/19 11:19:18;;;;;;;4.97;1.15;;;;;;;-143.48;36.15;78543.66;5013542;28;20025;-73
2022/10/19 11:22:03;;;;;;;4.60;1.38;;;;;;;-143.48;34.63;78355.25;5013185;28;20037;-72
2022/10/19 11:24:50;;;;;;;7.30;1.40;;;;;;;-143.48;35.93;78527.78;5012786;28;20030;-71
2022/10/19 11:27:37;;;;;;;6.70;1.50;;;;;;;-143.48;32.59;78168.84;5014468;28;20045;-70
2022/10/19 11:30:08;;;;;;;9.07;1.77;;;;;;;-143.48;30.19;77980.44;5013956;28;20501;-71